LEBL/BCN METAR and TAF weather

Enter ICAO airport designator
Station Type Date Time Source
LEBL METAR 2022/01/26 14:30 UTC NOAA

LEBL 261430Z 21009KT CAVOK 13/08 Q1029 NOSIG


Station Type Date Time Source
LEBL Decoded METAR 2022/01/26 14:30 UTC NOAA

Barcelona / Aeropuerto, Spain (LEBL) 41-17N 002-04E 6M
Jan 26, 2022 - 09:30 AM EST / 2022.01.26 1430 UTC
Wind: from the SSW (210 degrees) at 10 MPH (9 KT):0
Visibility: greater than 7 mile(s):0
Temperature: 55 F (13 C)
Dew Point: 46 F (8 C)
Relative Humidity: 71%
Pressure (altimeter): 30.39 in. Hg (1029 hPa)
ob: LEBL 261430Z 21009KT CAVOK 13/08 Q1029 NOSIG
cycle: 14

Station Type Date Time Source
LEBL TAF 2022/01/26 12:27 UTC NOAA

TAF LEBL 261100Z 2612/2712 23010KT 9999 FEW025 TX14/2613Z TN03/2707Z
BECMG 2618/2620 28005KT
BECMG 2622/2624 34010KT

Example: see airport list